Time;durP1;ratioP1;P1;durP2;ratioP2;P2;SDS_P1;SDS_P2;PMS_P1;PMS_P2;Temp;Humidity;BMP_temperature;BMP_pressure;BME280_temperature;BME280_humidity;BME280_pressure;Samples;Min_cycle;Max_cycle;Signal;HPM_P1;HPM_P2
2021/10/08 00:02:12;;;;;;;1999.90;999.90;;;;;;;11.43;100.00;96093.72;5051968;28;20197;-68
2021/10/08 00:04:40;;;;;;;1999.90;999.90;;;;;;;11.47;100.00;96097.31;5052211;28;20209;-68
2021/10/08 00:07:07;;;;;;;1999.90;999.90;;;;;;;11.35;100.00;96096.97;5051232;28;20720;-68
2021/10/08 00:09:36;;;;;;;1999.90;999.90;;;;;;;11.34;100.00;96100.63;5051782;28;20205;-68
2021/10/08 00:12:04;;;;;;;1999.90;999.90;;;;;;;11.37;100.00;96094.84;5051560;28;20238;-68
2021/10/08 00:14:31;;;;;;;1999.90;999.90;;;;;;;11.35;100.00;96099.56;5051758;28;20197;-68
2021/10/08 00:16:59;;;;;;;1999.90;999.90;;;;;;;11.40;100.00;96095.06;5051605;28;20298;-68
2021/10/08 00:19:26;;;;;;;1999.90;999.90;;;;;;;11.41;100.00;96090.63;5051869;28;20232;-69
2021/10/08 00:21:53;;;;;;;1999.90;999.90;;;;;;;11.40;100.00;96089.88;5051786;28;20639;-68
2021/10/08 00:24:21;;;;;;;1999.90;999.90;;;;;;;11.43;100.00;96089.28;5051549;28;20304;-68
2021/10/08 00:26:49;;;;;;;1999.90;999.90;;;;;;;11.42;100.00;96094.78;5050769;28;20575;-68
2021/10/08 00:29:16;;;;;;;1999.90;999.90;;;;;;;11.40;100.00;96089.09;5051337;28;20201;-67
2021/10/08 00:31:43;;;;;;;1999.90;999.90;;;;;;;11.44;100.00;96088.25;5051338;28;20201;-68
2021/10/08 00:34:11;;;;;;;1999.90;999.90;;;;;;;11.47;100.00;96092.88;5051415;28;20201;-67
2021/10/08 00:36:38;;;;;;;1999.90;999.90;;;;;;;11.46;100.00;96087.94;5051254;28;20229;-67
2021/10/08 00:39:05;;;;;;;1999.90;999.90;;;;;;;11.49;100.00;96087.38;5051452;28;20192;-68
2021/10/08 00:41:33;;;;;;;1999.90;999.90;;;;;;;11.44;100.00;96085.63;5051176;28;20205;-68
2021/10/08 00:44:02;;;;;;;1999.90;999.90;;;;;;;11.40;100.00;96089.09;5051069;28;20196;-68
2021/10/08 00:46:29;;;;;;;1999.90;999.90;;;;;;;11.36;100.00;96077.69;5050919;28;20197;-68
2021/10/08 00:48:56;;;;;;;1999.90;999.90;;;;;;;11.35;100.00;96078.75;5051302;28;20673;-68
2021/10/08 00:51:26;;;;;;;1999.90;999.90;;;;;;;11.35;100.00;96082.13;5051044;28;20741;-68
2021/10/08 00:53:54;;;;;;;1999.90;999.90;;;;;;;11.35;100.00;96081.38;5051231;28;20201;-68
2021/10/08 00:56:22;;;;;;;1999.90;999.90;;;;;;;11.34;100.00;96079.81;5050781;28;20217;-68
2021/10/08 00:58:50;;;;;;;1999.90;999.90;;;;;;;11.34;100.00;96080.59;5050868;28;20197;-68
2021/10/08 01:01:19;;;;;;;1999.90;999.90;;;;;;;11.28;100.00;96084.31;5051045;28;20205;-68
2021/10/08 01:03:46;;;;;;;1999.90;999.90;;;;;;;11.26;100.00;96093.47;5050878;28;20211;-68
2021/10/08 01:06:14;;;;;;;1999.90;999.90;;;;;;;11.37;100.00;96094.84;5050670;28;20236;-69
2021/10/08 01:08:42;;;;;;;1999.90;999.90;;;;;;;11.23;100.00;96095.56;5050692;28;20235;-68
2021/10/08 01:11:09;;;;;;;1999.90;999.90;;;;;;;11.26;100.00;96098.69;5051022;28;20193;-68
2021/10/08 01:13:37;;;;;;;1999.90;999.90;;;;;;;11.34;100.00;96095.44;5051021;28;20201;-68
2021/10/08 01:16:04;;;;;;;1999.90;999.90;;;;;;;11.39;100.00;96083.13;5050765;28;20283;-68
2021/10/08 01:18:33;;;;;;;1999.90;999.90;;;;;;;11.41;100.00;96082.81;5050833;28;20193;-68
2021/10/08 01:21:01;;;;;;;1999.90;999.90;;;;;;;11.40;100.00;96073.47;5050593;28;20693;-68
2021/10/08 01:23:29;;;;;;;1999.90;999.90;;;;;;;11.39;100.00;96074.53;5050605;28;20208;-67
2021/10/08 01:25:56;;;;;;;1999.90;999.90;;;;;;;11.43;100.00;96072.91;5050657;28;20197;-67
2021/10/08 01:28:23;;;;;;;1999.90;999.90;;;;;;;11.48;100.00;96080.63;5050381;28;20254;-67
2021/10/08 01:30:50;;;;;;;1999.90;999.90;;;;;;;11.45;100.00;96089.78;5050415;28;20228;-67
2021/10/08 01:33:18;;;;;;;1999.90;999.90;;;;;;;11.44;100.00;96095.28;5050531;28;20204;-67
2021/10/08 01:35:45;;;;;;;1999.90;999.90;;;;;;;11.50;100.00;96094.16;5050248;28;20548;-67
2021/10/08 01:38:14;;;;;;;1999.90;999.90;;;;;;;11.40;100.00;96092.47;5050424;28;20242;-68
2021/10/08 01:40:41;;;;;;;1999.90;999.90;;;;;;;11.42;100.00;96090.34;5050332;28;20599;-67
2021/10/08 01:43:08;;;;;;;1999.90;999.90;;;;;;;11.39;100.00;96082.34;5050060;28;20193;-69
2021/10/08 01:45:35;;;;;;;1999.90;999.90;;;;;;;11.39;100.00;96088.31;5050132;28;20715;-68
2021/10/08 01:48:03;;;;;;;1999.90;999.90;;;;;;;11.43;100.00;96068.47;5049881;28;20193;-68
2021/10/08 01:50:30;;;;;;;1999.90;999.90;;;;;;;11.41;100.00;96062.00;5050015;28;20193;-68
2021/10/08 01:52:59;;;;;;;1999.90;999.90;;;;;;;11.47;100.00;96066.06;5049922;28;20197;-67
2021/10/08 01:55:28;;;;;;;1999.90;999.90;;;;;;;11.29;100.00;96062.44;5049314;28;20579;-68
2021/10/08 01:57:55;;;;;;;1999.90;999.90;;;;;;;11.29;100.00;96061.66;5049662;28;20249;-68
2021/10/08 02:00:22;;;;;;;1999.90;999.90;;;;;;;11.35;100.00;96060.53;5049638;28;20205;-67
2021/10/08 02:02:49;;;;;;;1999.90;999.90;;;;;;;11.34;100.00;96059.00;5044254;28;20752;-68
2021/10/08 02:05:16;;;;;;;1999.90;999.90;;;;;;;11.29;100.00;96051.25;5049532;28;20288;-69
2021/10/08 02:07:47;;;;;;;1999.90;999.90;;;;;;;11.25;100.00;96052.88;5048612;28;20229;-67
2021/10/08 02:10:15;;;;;;;1999.90;999.90;;;;;;;11.23;100.00;96066.19;5048883;28;20659;-68
2021/10/08 02:12:43;;;;;;;1999.90;999.90;;;;;;;11.18;100.00;96077.44;5049423;28;20193;-67
2021/10/08 02:15:11;;;;;;;1999.90;999.90;;;;;;;11.17;100.00;96070.69;5049830;28;20219;-68
2021/10/08 02:17:38;;;;;;;1999.90;999.90;;;;;;;11.23;100.00;96068.78;5049486;28;20228;-68
2021/10/08 02:20:06;;;;;;;1999.90;999.90;;;;;;;11.20;100.00;96064.16;5049527;28;20641;-68
2021/10/08 02:22:33;;;;;;;1999.90;999.90;;;;;;;11.25;100.00;96061.47;5049326;28;20193;-68
2021/10/08 02:25:01;;;;;;;1999.90;999.90;;;;;;;11.25;100.00;96063.31;5049887;28;20205;-67
2021/10/08 02:27:28;;;;;;;1999.90;999.90;;;;;;;11.21;100.00;96061.25;5049945;28;20276;-68
2021/10/08 02:29:56;;;;;;;1999.90;999.90;;;;;;;11.31;100.00;96069.97;5049855;28;20374;-68
2021/10/08 02:32:23;;;;;;;1999.90;999.90;;;;;;;11.28;100.00;96068.69;5049329;28;20201;-68
2021/10/08 02:34:51;;;;;;;1999.90;999.90;;;;;;;11.31;100.00;96062.19;5048210;28;20203;-67
2021/10/08 02:37:18;;;;;;;1999.90;999.90;;;;;;;11.34;100.00;96051.97;5049335;28;20221;-68
2021/10/08 02:39:45;;;;;;;1999.90;999.90;;;;;;;11.35;100.00;96060.53;5049112;28;20236;-68
2021/10/08 02:42:13;;;;;;;1999.90;999.90;;;;;;;11.34;100.00;96053.78;5049006;28;20237;-69
2021/10/08 02:44:40;;;;;;;1999.90;999.90;;;;;;;11.28;100.00;96054.91;5049368;28;20189;-69
2021/10/08 02:47:09;;;;;;;1999.90;999.90;;;;;;;11.44;100.00;96059.63;5049018;28;20299;-69
2021/10/08 02:49:36;;;;;;;1999.90;999.90;;;;;;;11.35;100.00;96055.34;5049073;28;20207;-68
2021/10/08 02:52:04;;;;;;;1999.90;999.90;;;;;;;11.26;100.00;96057.03;5049204;28;20225;-69
2021/10/08 02:54:31;;;;;;;1999.90;999.90;;;;;;;11.33;100.00;96052.25;5049020;28;20200;-69
2021/10/08 02:56:59;;;;;;;1999.90;999.90;;;;;;;11.39;100.00;96048.50;5048717;28;20228;-69
2021/10/08 02:59:26;;;;;;;1999.90;999.90;;;;;;;11.36;100.00;96051.66;5049040;28;20201;-69
2021/10/08 03:01:53;;;;;;;1999.90;999.90;;;;;;;11.31;100.00;96055.13;5049082;28;20284;-68
2021/10/08 03:04:22;;;;;;;1999.90;999.90;;;;;;;11.33;100.00;96053.00;5049131;28;20279;-69
2021/10/08 03:06:49;;;;;;;1999.90;999.90;;;;;;;11.34;100.00;96057.16;5050644;28;20314;-69
2021/10/08 03:09:16;;;;;;;1999.90;999.90;;;;;;;11.39;100.00;96059.69;5053105;28;20189;-69
2021/10/08 03:11:44;;;;;;;1999.90;999.90;;;;;;;11.32;100.00;96058.50;5052735;28;20205;-69
2021/10/08 03:14:12;;;;;;;1999.90;999.90;;;;;;;11.35;100.00;96060.53;5052792;28;20201;-68
2021/10/08 03:16:39;;;;;;;1999.90;999.90;;;;;;;11.35;100.00;96060.53;5053182;28;20224;-68
2021/10/08 03:19:06;;;;;;;1999.90;999.90;;;;;;;11.21;100.00;96061.25;5053020;28;20589;-68
2021/10/08 03:21:35;;;;;;;1999.90;999.90;;;;;;;11.30;100.00;96060.63;5052538;28;20284;-68
2021/10/08 03:24:02;;;;;;;1999.90;999.90;;;;;;;11.37;100.00;96059.19;5052729;28;20211;-68
2021/10/08 03:26:29;;;;;;;1999.90;999.90;;;;;;;11.27;100.00;96067.16;5052507;28;20279;-68
2021/10/08 03:28:56;;;;;;;1999.90;999.90;;;;;;;11.33;100.00;96075.66;5052621;28;20193;-69
2021/10/08 03:31:24;;;;;;;1999.90;999.90;;;;;;;11.36;100.00;96057.63;5052199;28;20197;-69
2021/10/08 03:33:51;;;;;;;1999.90;999.90;;;;;;;11.32;100.00;96061.09;5052948;28;20288;-68
2021/10/08 03:36:22;;;;;;;1999.90;999.90;;;;;;;11.37;99.62;96058.41;5052252;28;20197;-69
2021/10/08 03:38:51;;;;;;;1999.90;999.90;;;;;;;11.19;100.00;96063.38;5052724;28;20190;-68
2021/10/08 03:41:19;;;;;;;1999.90;999.90;;;;;;;11.27;100.00;96063.78;5052691;28;20193;-69
2021/10/08 03:43:47;;;;;;;1999.90;999.90;;;;;;;11.38;100.00;96073.75;5052235;28;20589;-68
2021/10/08 03:46:15;;;;;;;1999.90;999.90;;;;;;;11.27;100.00;96063.78;5052464;28;20565;-69
2021/10/08 03:51:30;;;;;;;1999.90;999.90;;;;;;;11.14;100.00;96066.03;5048564;28;20292;-68
2021/10/08 03:53:59;;;;;;;1999.90;999.90;;;;;;;11.12;100.00;96052.53;5052022;28;20201;-70
2021/10/08 03:56:27;;;;;;;1999.90;999.90;;;;;;;11.14;100.00;96047.84;5051946;28;20193;-69
2021/10/08 03:58:55;;;;;;;1999.90;999.90;;;;;;;11.16;100.00;96052.75;5052117;28;20216;-68
2021/10/08 04:01:22;;;;;;;1999.90;999.90;;;;;;;11.16;100.00;96053.50;5051995;28;20748;-68
2021/10/08 04:03:50;;;;;;;1999.90;999.90;;;;;;;11.14;100.00;96060.06;5051947;28;20201;-69
2021/10/08 04:06:18;;;;;;;1999.90;999.90;;;;;;;11.07;99.73;96068.22;5051813;28;20640;-69
2021/10/08 04:08:46;;;;;;;1999.90;999.90;;;;;;;11.13;99.07;96068.91;5051774;28;20201;-69
2021/10/08 04:11:14;;;;;;;1999.90;999.90;;;;;;;11.03;98.91;96059.44;5052164;28;20209;-69
2021/10/08 04:13:42;;;;;;;1999.90;999.90;;;;;;;11.01;99.62;96066.72;5051618;28;20688;-69
2021/10/08 04:16:09;;;;;;;1999.90;999.90;;;;;;;11.07;100.00;96068.22;5051658;28;20201;-69
2021/10/08 04:18:36;;;;;;;1999.90;999.90;;;;;;;11.13;99.63;96063.72;5051328;28;20220;-68
2021/10/08 04:21:04;;;;;;;1999.90;999.90;;;;;;;10.99;100.00;96074.06;5051595;28;20747;-68
2021/10/08 04:23:31;;;;;;;1999.90;999.90;;;;;;;11.09;99.63;96084.31;5051598;28;20243;-69
2021/10/08 04:25:58;;;;;;;1999.90;999.90;;;;;;;11.08;100.00;96076.78;5051450;28;20568;-68
2021/10/08 04:28:27;;;;;;;1999.90;999.90;;;;;;;11.13;100.00;96080.09;5051252;28;20199;-69
2021/10/08 04:30:54;;;;;;;1999.90;999.90;;;;;;;11.05;99.88;96091.16;5050028;28;20247;-69
2021/10/08 04:33:24;;;;;;;1999.90;999.90;;;;;;;11.09;99.14;96083.53;5050934;28;20673;-69
2021/10/08 04:35:51;;;;;;;1999.90;999.90;;;;;;;11.09;98.67;96094.72;5051499;28;20201;-67
2021/10/08 04:38:19;;;;;;;1999.90;999.90;;;;;;;11.15;98.58;96095.44;5051228;28;20311;-69
2021/10/08 04:40:46;;;;;;;1999.90;999.90;;;;;;;11.12;97.53;96088.94;5051325;28;20196;-69
2021/10/08 04:43:14;;;;;;;1999.90;999.90;;;;;;;11.09;97.48;96088.75;5051279;28;20213;-69
2021/10/08 04:45:42;;;;;;;1999.90;999.90;;;;;;;10.98;98.84;96093.31;5051466;28;20677;-68
2021/10/08 04:48:09;;;;;;;1999.90;999.90;;;;;;;10.99;98.64;96100.06;5050966;28;20196;-69
2021/10/08 04:50:36;;;;;;;1999.90;999.90;;;;;;;11.03;98.06;96095.06;5051009;28;20711;-69
2021/10/08 04:53:16;;;;;;;1999.90;999.90;;;;;;;11.13;97.01;96095.72;5051203;28;20669;-69
2021/10/08 04:55:44;;;;;;;1999.90;999.90;;;;;;;10.96;98.38;96094.66;5051268;28;20188;-69
2021/10/08 04:58:11;;;;;;;1999.90;999.90;;;;;;;10.97;98.53;96094.34;5050760;28;20644;-69
2021/10/08 05:00:39;;;;;;;1999.90;999.90;;;;;;;10.98;97.64;96095.91;5050764;28;20685;-69
2021/10/08 05:03:13;;;;;;;1999.90;999.90;;;;;;;10.94;98.25;96097.53;5051045;28;20550;-69
2021/10/08 05:05:40;;;;;;;1999.90;999.90;;;;;;;10.99;98.13;96089.66;5050874;28;20210;-68
2021/10/08 05:08:07;;;;;;;1999.90;999.90;;;;;;;10.93;98.01;96085.56;5050516;28;20204;-69
2021/10/08 05:10:34;;;;;;;1999.90;999.90;;;;;;;10.94;98.73;96076.72;5050530;28;20211;-69
2021/10/08 05:13:02;;;;;;;1999.90;999.90;;;;;;;10.96;98.66;96069.41;5050281;28;20201;-69
2021/10/08 05:15:29;;;;;;;1999.90;999.90;;;;;;;10.85;98.53;96068.00;5050664;28;20196;-69
2021/10/08 05:17:56;;;;;;;1999.90;999.90;;;;;;;10.98;98.11;96067.31;5050452;28;20221;-69
2021/10/08 05:20:24;;;;;;;1999.90;999.90;;;;;;;10.84;98.08;96066.47;5050378;28;20193;-69
2021/10/08 05:22:52;;;;;;;1999.90;999.90;;;;;;;10.79;98.41;96069.13;5050202;28;20247;-68
2021/10/08 05:25:19;;;;;;;1999.90;999.90;;;;;;;10.89;97.76;96070.81;5050683;28;20193;-69
2021/10/08 05:27:46;;;;;;;1999.90;999.90;;;;;;;10.89;97.96;96060.41;5050574;28;20201;-68
2021/10/08 05:30:15;;;;;;;1999.90;999.90;;;;;;;11.00;97.99;96065.22;5049503;28;20205;-68
2021/10/08 05:32:42;;;;;;;1999.90;999.90;;;;;;;10.90;97.83;96078.34;5050329;28;20212;-68
2021/10/08 05:35:11;;;;;;;1999.90;999.90;;;;;;;10.95;97.84;96078.28;5050604;28;20197;-69
2021/10/08 05:37:40;;;;;;;1999.90;999.90;;;;;;;10.99;97.18;96081.88;5049976;28;20267;-69
2021/10/08 05:40:08;;;;;;;1999.90;999.90;;;;;;;10.98;97.96;96082.91;5050181;28;20633;-70
2021/10/08 05:42:35;;;;;;;1999.90;999.90;;;;;;;11.10;96.88;96083.28;5049757;28;20673;-68
2021/10/08 05:45:02;;;;;;;1999.90;999.90;;;;;;;11.06;97.41;96091.91;5050100;28;20201;-70
2021/10/08 05:47:30;;;;;;;1999.90;999.90;;;;;;;11.05;97.02;96098.19;5050191;28;20688;-70
2021/10/08 05:49:57;;;;;;;1999.90;999.90;;;;;;;11.00;96.25;96093.81;5049781;28;20743;-70
2021/10/08 05:52:24;;;;;;;1999.90;999.90;;;;;;;11.00;96.85;96093.81;5049608;28;20201;-70
2021/10/08 05:54:52;;;;;;;1999.90;999.90;;;;;;;11.00;96.96;96085.25;5049971;28;20676;-69
2021/10/08 05:57:19;;;;;;;1999.90;999.90;;;;;;;11.02;96.79;96083.13;5049849;28;20247;-69
2021/10/08 05:59:48;;;;;;;1999.90;999.90;;;;;;;11.08;97.17;96077.56;5049544;28;20259;-68
2021/10/08 06:02:15;;;;;;;1999.90;999.90;;;;;;;11.14;97.41;96080.88;5050055;28;20371;-70
2021/10/08 06:04:42;;;;;;;1999.90;999.90;;;;;;;11.14;98.35;96086.84;5050141;28;20560;-69
2021/10/08 06:07:10;;;;;;;1999.90;999.90;;;;;;;11.06;99.84;96074.47;5049454;28;20229;-69
2021/10/08 06:09:37;;;;;;;1999.90;999.90;;;;;;;11.14;99.65;96086.09;5049540;28;20213;-71
2021/10/08 06:12:06;;;;;;;1999.90;999.90;;;;;;;11.14;98.29;96073.06;5049494;28;20205;-70
2021/10/08 06:14:34;;;;;;;1999.90;999.90;;;;;;;11.12;98.66;96075.94;5049371;28;20208;-68
2021/10/08 06:17:01;;;;;;;1999.90;999.90;;;;;;;11.19;98.39;96073.00;5049193;28;20201;-68
2021/10/08 06:19:28;;;;;;;1999.90;999.90;;;;;;;11.22;98.20;96077.63;5049367;28;20193;-68
2021/10/08 06:21:55;;;;;;;1999.90;999.90;;;;;;;11.17;96.47;96081.09;5049339;28;20691;-69
2021/10/08 06:24:22;;;;;;;1999.90;999.90;;;;;;;11.29;96.46;96077.28;5049183;28;20262;-69
2021/10/08 06:26:49;;;;;;;1999.90;999.90;;;;;;;11.22;97.10;96073.19;5049128;28;20197;-70
2021/10/08 06:29:18;;;;;;;1999.90;999.90;;;;;;;11.21;96.51;96087.25;5049620;28;20228;-70
2021/10/08 06:31:45;;;;;;;1999.90;999.90;;;;;;;11.18;96.23;96087.84;5048410;28;20227;-71
2021/10/08 06:34:12;;;;;;;1999.90;999.90;;;;;;;11.18;96.57;96084.47;5048971;28;20201;-69
2021/10/08 06:36:40;;;;;;;1999.90;999.90;;;;;;;11.21;97.33;96082.06;5049458;28;20597;-69
2021/10/08 06:39:07;;;;;;;1999.90;999.90;;;;;;;11.22;95.96;96078.41;5048756;28;20270;-69
2021/10/08 06:41:34;;;;;;;1999.90;999.90;;;;;;;11.17;96.73;96080.31;5048908;28;20201;-69
2021/10/08 06:44:01;;;;;;;1999.90;999.90;;;;;;;11.22;96.25;96093.25;5049118;28;20205;-68
2021/10/08 06:46:30;;;;;;;1999.90;999.90;;;;;;;11.18;95.49;96093.03;5049284;28;20213;-69
2021/10/08 06:48:57;;;;;;;1999.90;999.90;;;;;;;11.08;95.68;96090.56;5048757;28;20673;-68
2021/10/08 06:51:25;;;;;;;1999.90;999.90;;;;;;;11.11;96.95;96082.19;5049015;28;20338;-68
2021/10/08 06:53:52;;;;;;;1999.90;999.90;;;;;;;11.09;97.02;96091.34;5049026;28;20197;-69
2021/10/08 06:56:19;;;;;;;1999.90;999.90;;;;;;;11.03;97.40;96093.25;5049232;28;20208;-69
2021/10/08 06:58:46;;;;;;;1999.90;999.90;;;;;;;11.01;98.97;96092.75;5048624;28;20597;-69
2021/10/08 07:01:13;;;;;;;1999.90;999.90;;;;;;;10.97;99.04;96099.56;5048884;28;20216;-69
2021/10/08 07:03:41;;;;;;;1999.90;999.90;;;;;;;10.86;100.00;96107.78;5049017;28;20270;-68
2021/10/08 07:06:09;;;;;;;1999.90;999.90;;;;;;;10.89;100.00;96100.19;5048599;28;20236;-69
2021/10/08 07:08:36;;;;;;;1999.90;999.90;;;;;;;10.86;100.00;96105.19;5049007;28;20692;-68
2021/10/08 07:11:03;;;;;;;1999.90;999.90;;;;;;;10.76;100.00;96113.88;5049126;28;20197;-68
2021/10/08 07:13:30;;;;;;;1999.90;999.90;;;;;;;10.77;100.00;96113.59;5048763;28;20208;-68
2021/10/08 07:15:58;;;;;;;1999.90;999.90;;;;;;;10.84;100.00;96121.06;5048594;28;20197;-68
2021/10/08 07:18:33;;;;;;;1999.90;999.90;;;;;;;10.80;100.00;96117.47;5048402;28;20235;-68
2021/10/08 07:21:03;;;;;;;1999.90;999.90;;;;;;;10.73;100.00;96123.00;5048940;28;20193;-68
2021/10/08 07:23:30;;;;;;;1999.90;999.90;;;;;;;10.81;100.00;96118.25;5048467;28;20197;-68
2021/10/08 07:25:57;;;;;;;1999.90;999.90;;;;;;;10.75;100.00;96114.94;5048997;28;20200;-69
2021/10/08 07:28:25;;;;;;;1999.90;999.90;;;;;;;10.81;100.00;96124.19;5048789;28;20205;-69
2021/10/08 07:30:53;;;;;;;1999.90;999.90;;;;;;;10.80;100.00;96125.28;5048434;28;20280;-68
2021/10/08 07:33:21;;;;;;;1999.90;999.90;;;;;;;10.66;100.00;96116.63;5048458;28;20201;-69
2021/10/08 07:35:49;;;;;;;1999.90;999.90;;;;;;;10.76;100.00;96126.84;5048432;28;20205;-70
2021/10/08 07:38:18;;;;;;;1999.90;999.90;;;;;;;10.71;100.00;96135.50;5048372;28;20229;-70
2021/10/08 07:40:45;;;;;;;1999.90;999.90;;;;;;;10.73;100.00;96148.22;5048495;28;20205;-69
2021/10/08 07:43:12;;;;;;;1999.90;999.90;;;;;;;10.77;100.00;96149.22;5048369;28;20688;-69
2021/10/08 07:45:39;;;;;;;1999.90;999.90;;;;;;;10.70;100.00;96141.00;5048699;28;20201;-69
2021/10/08 07:48:07;;;;;;;1999.90;999.90;;;;;;;10.66;100.00;96140.00;5048395;28;20204;-69
2021/10/08 07:50:34;;;;;;;1999.90;999.90;;;;;;;10.67;100.00;96144.91;5048480;28;20204;-70
2021/10/08 07:53:01;;;;;;;1999.90;999.90;;;;;;;10.62;100.00;96162.38;5050303;28;21033;-70
2021/10/08 07:55:30;;;;;;;1999.90;999.90;;;;;;;10.65;100.00;96161.84;5052391;28;20221;-70
2021/10/08 07:57:57;;;;;;;1999.90;999.90;;;;;;;10.77;100.00;96172.59;5051809;28;20221;-69
2021/10/08 08:00:24;;;;;;;1999.90;999.90;;;;;;;10.69;100.00;96179.22;5051922;28;20201;-69
2021/10/08 08:02:51;;;;;;;1999.90;999.90;;;;;;;10.65;100.00;96187.84;5052185;28;20201;-70
2021/10/08 08:05:18;;;;;;;1999.90;999.90;;;;;;;10.74;100.00;96201.78;5051864;28;20197;-69
2021/10/08 08:07:46;;;;;;;1999.90;999.90;;;;;;;10.64;100.00;96201.88;5051593;28;20327;-69
2021/10/08 08:10:14;;;;;;;1999.90;999.90;;;;;;;10.57;100.00;96202.19;5051682;28;20204;-70
2021/10/08 08:12:43;;;;;;;1999.90;999.90;;;;;;;10.45;100.00;96206.22;5052147;28;20205;-70
2021/10/08 08:15:11;;;;;;;1999.90;999.90;;;;;;;10.53;100.00;96213.41;5051827;28;20228;-69
2021/10/08 08:17:38;;;;;;;1999.90;999.90;;;;;;;10.45;100.00;96224.41;5052333;28;20591;-70
2021/10/08 08:20:07;;;;;;;1999.90;999.90;;;;;;;10.44;100.00;96217.66;5052056;28;20205;-70
2021/10/08 08:22:34;;;;;;;1999.90;999.90;;;;;;;10.46;100.00;96231.16;5051934;28;20201;-69
2021/10/08 08:25:02;;;;;;;1999.90;999.90;;;;;;;10.39;100.00;96230.69;5050588;28;20209;-69
2021/10/08 08:27:29;;;;;;;1999.90;999.90;;;;;;;10.34;100.00;96216.72;5051603;28;20205;-69
2021/10/08 08:29:58;;;;;;;1999.90;999.90;;;;;;;10.39;100.00;96207.31;5051632;28;20279;-69
2021/10/08 08:32:27;;;;;;;1999.90;999.90;;;;;;;10.38;100.00;96197.97;5051675;28;20212;-69
2021/10/08 08:34:54;;;;;;;1999.90;999.90;;;;;;;10.45;100.00;96193.22;5051207;28;20197;-70
2021/10/08 08:37:21;;;;;;;1999.90;999.90;;;;;;;10.36;100.00;96196.41;5051481;28;20205;-68
2021/10/08 08:39:48;;;;;;;1999.90;999.90;;;;;;;10.23;100.00;96207.44;5051086;28;20221;-70
2021/10/08 08:42:17;;;;;;;1999.90;999.90;;;;;;;10.28;100.00;96215.19;5051420;28;20209;-70
2021/10/08 08:44:44;;;;;;;1999.90;999.90;;;;;;;10.33;100.00;96214.38;5051187;28;20193;-69
2021/10/08 08:47:16;;;;;;;1999.90;999.90;;;;;;;10.39;100.00;96228.09;5051366;28;20205;-69
2021/10/08 08:49:43;;;;;;;1999.90;999.90;;;;;;;10.43;100.00;96231.69;5051001;28;20725;-70
2021/10/08 08:52:11;;;;;;;1999.90;999.90;;;;;;;10.50;100.00;96237.38;5050893;28;20220;-70
2021/10/08 08:54:39;;;;;;;1999.90;999.90;;;;;;;10.65;100.00;96234.63;5050878;28;20211;-70
2021/10/08 08:57:11;;;;;;;1999.90;999.90;;;;;;;10.40;100.00;96248.63;5050972;28;20202;-70
2021/10/08 09:00:04;;;;;;;1999.90;999.90;;;;;;;10.54;100.00;96248.75;5050942;28;20231;-70
2021/10/08 09:02:34;;;;;;;1999.90;999.90;;;;;;;10.64;100.00;96243.47;5051035;28;20240;-70
2021/10/08 09:05:01;;;;;;;1999.90;999.90;;;;;;;10.73;100.00;96244.41;5050733;28;20215;-70
2021/10/08 09:07:34;;;;;;;1999.90;999.90;;;;;;;10.75;100.00;96255.31;5050401;28;20239;-69
2021/10/08 09:10:11;;;;;;;1999.90;999.90;;;;;;;10.71;100.00;96251.69;5050569;28;20278;-69
2021/10/08 09:12:40;;;;;;;1999.90;999.90;;;;;;;10.66;100.00;96254.38;5050568;28;20185;-69
2021/10/08 09:15:09;;;;;;;1999.90;999.90;;;;;;;10.73;100.00;96241.81;5050600;28;20577;-69
2021/10/08 09:17:38;;;;;;;1999.90;999.90;;;;;;;10.71;100.00;96236.09;5050677;28;20590;-69
2021/10/08 09:20:07;;;;;;;1999.90;999.90;;;;;;;10.78;100.00;96218.34;5050572;28;20233;-69
2021/10/08 09:22:50;;;;;;;1999.90;999.90;;;;;;;10.78;100.00;96221.75;5050386;28;20200;-70
2021/10/08 09:25:20;;;;;;;1999.90;999.90;;;;;;;10.76;100.00;96218.63;5050524;28;20200;-70
2021/10/08 09:27:49;;;;;;;1999.90;999.90;;;;;;;10.66;100.00;96205.72;5050366;28;20287;-70
2021/10/08 09:30:17;;;;;;;1999.90;999.90;;;;;;;10.68;100.00;96206.25;5050114;28;20202;-69
2021/10/08 09:32:48;;;;;;;1999.90;999.90;;;;;;;10.62;100.00;96209.16;5050188;28;20288;-69
2021/10/08 09:35:17;;;;;;;1999.90;999.90;;;;;;;10.60;100.00;96206.09;5050427;28;20238;-69
2021/10/08 09:37:53;;;;;;;1999.90;999.90;;;;;;;10.58;100.00;96211.53;5049937;28;20193;-70
2021/10/08 09:40:27;;;;;;;1999.90;999.90;;;;;;;10.66;100.00;96218.72;5050093;28;20205;-69
2021/10/08 09:43:00;;;;;;;1999.90;999.90;;;;;;;10.69;100.00;96220.78;5050246;28;20186;-69
2021/10/08 09:45:39;;;;;;;1999.90;999.90;;;;;;;10.79;100.00;96220.69;5049885;28;20189;-69
2021/10/08 09:48:08;;;;;;;1999.90;999.90;;;;;;;10.83;100.00;96220.13;5049834;28;20193;-68
2021/10/08 09:50:36;;;;;;;1999.90;999.90;;;;;;;10.81;100.00;96227.44;5049662;28;20216;-68
2021/10/08 09:53:14;;;;;;;1999.90;999.90;;;;;;;10.71;100.00;96238.69;5050026;28;20204;-68
2021/10/08 09:55:42;;;;;;;1999.90;999.90;;;;;;;10.68;100.00;96239.25;5051232;28;20181;-69
2021/10/08 09:58:10;;;;;;;1999.90;999.90;;;;;;;10.69;100.00;96233.78;5049554;28;20201;-68
2021/10/08 10:00:46;;;;;;;1999.90;999.90;;;;;;;10.71;100.00;96228.28;5049731;28;20205;-68
2021/10/08 10:03:17;;;;;;;1999.90;999.90;;;;;;;10.69;100.00;96235.63;5049734;28;20223;-68
2021/10/08 10:05:44;;;;;;;1999.90;999.90;;;;;;;10.70;100.00;96230.16;5049459;28;20185;-68
2021/10/08 10:08:12;;;;;;;1999.90;999.90;;;;;;;10.71;100.00;96233.50;5049527;28;20675;-68
2021/10/08 10:10:40;;;;;;;1999.90;999.90;;;;;;;10.82;100.00;96234.94;5049852;28;20258;-70
2021/10/08 10:13:10;;;;;;;1999.90;999.90;;;;;;;10.80;100.00;96242.28;5049877;28;20200;-69
2021/10/08 10:15:39;;;;;;;1999.90;999.90;;;;;;;10.86;100.00;96243.75;5049244;28;20223;-69
2021/10/08 10:18:10;;;;;;;1999.90;999.90;;;;;;;10.89;100.00;96235.41;5049271;28;20748;-70
2021/10/08 10:20:44;;;;;;;1999.90;999.90;;;;;;;10.97;100.00;96227.00;5049412;28;20216;-69
2021/10/08 10:23:12;;;;;;;1999.90;999.90;;;;;;;11.00;100.00;96215.28;5049848;28;20189;-69
2021/10/08 10:25:40;;;;;;;1999.90;999.90;;;;;;;11.09;100.00;96213.59;5049224;28;20205;-68
2021/10/08 10:28:07;;;;;;;1999.90;999.90;;;;;;;11.08;100.00;96202.41;5049255;28;20201;-68
2021/10/08 10:30:35;;;;;;;1999.90;999.90;;;;;;;11.20;100.00;96189.81;5049421;28;20200;-68
2021/10/08 10:33:03;;;;;;;1999.90;999.90;;;;;;;11.22;100.00;96187.69;5048418;28;20320;-68
2021/10/08 10:35:50;;;;;;;1999.90;999.90;;;;;;;11.19;100.00;96179.66;5049327;28;20201;-70
2021/10/08 10:38:30;;;;;;;1999.90;999.90;;;;;;;11.32;100.00;96181.56;5049114;28;20268;-68
2021/10/08 10:41:22;;;;;;;1999.90;999.90;;;;;;;11.14;100.00;96169.31;5038199;28;20204;-69
2021/10/08 10:43:52;;;;;;;1999.90;999.90;;;;;;;10.97;100.00;96156.00;5029450;28;20196;-68
2021/10/08 10:46:25;;;;;;;1999.90;999.90;;;;;;;10.95;100.00;96145.13;5029660;28;20202;-68
2021/10/08 10:49:28;;;;;;;1999.90;999.90;;;;;;;10.78;100.00;96129.97;5029153;28;20269;-67
2021/10/08 10:52:12;;;;;;;1999.90;999.90;;;;;;;10.81;100.00;96129.41;5028997;28;20193;-68
2021/10/08 10:55:02;;;;;;;1999.90;999.90;;;;;;;10.86;100.00;96139.75;5029065;28;20189;-68
2021/10/08 10:57:56;;;;;;;1999.90;999.90;;;;;;;10.83;100.00;96136.94;5029360;28;20200;-68
2021/10/08 11:00:25;;;;;;;1999.90;999.90;;;;;;;10.78;100.00;96137.78;5028751;28;20232;-69